Lochgilphead, United Kingdom
Current Conditions -  °F | °C
As of 4:50 AM on Sunday 23 Nov 2014 (Local Time) from EGPI Reporting Station
Broken Clouds Broken Clouds  
Wind Chill: 42°   Ceiling: 4700
Heat Index: 45°   Visibility: 6mi
Dew Point: 37°   Wind: 5mph
Humidity: 76%   Direction: NA
Pressure: 30"   Gusts: NA
Location:  56.04°N, 5.43°W
Report Text: EGPI 230450Z AUTO VRB04KT 9999 FEW031/// BKN047/// 07/03 Q1016
Loading
Personal Weather Stations






























Interactive Weather Map New forecast layout! Learn more

10-Day Weather Forecast

Advertisements
Track Severe Weather on mobile